createdAt,value
2019-02-17T00:04:51.809Z,8.20
2019-02-17T00:09:58.406Z,7.70
2019-02-17T00:15:06.022Z,8.43
2019-02-17T00:20:12.546Z,8.40
2019-02-17T00:25:20.421Z,8.67
2019-02-17T00:30:26.770Z,9.13
2019-02-17T00:35:32.866Z,9.23
2019-02-17T00:40:38.799Z,9.43
2019-02-17T00:45:45.244Z,9.63
2019-02-17T00:50:50.824Z,8.70
2019-02-17T00:55:56.841Z,9.43
2019-02-17T01:01:03.157Z,9.23
2019-02-17T01:06:09.254Z,9.43
2019-02-17T01:11:15.417Z,46.07
2019-02-17T01:16:21.213Z,43.43
2019-02-17T01:21:26.871Z,10.07
2019-02-17T01:26:33.998Z,8.83
2019-02-17T01:31:39.713Z,9.10
2019-02-17T01:36:46.714Z,9.23
2019-02-17T01:41:52.994Z,9.57
2019-02-17T01:46:59.464Z,9.30
2019-02-17T01:52:05.519Z,9.97
2019-02-17T01:57:11.165Z,9.17
2019-02-17T02:02:17.709Z,9.07
2019-02-17T02:07:23.805Z,9.13
2019-02-17T02:12:29.685Z,8.90
2019-02-17T02:17:37.756Z,8.87
2019-02-17T02:22:46.019Z,9.00
2019-02-17T02:27:51.802Z,8.43
2019-02-17T02:32:59.819Z,8.73
2019-02-17T02:38:06.106Z,8.90
2019-02-17T02:43:11.647Z,9.00
2019-02-17T02:48:17.696Z,8.20
2019-02-17T02:53:23.751Z,8.33
2019-02-17T02:58:29.704Z,8.70
2019-02-17T03:03:35.497Z,8.70
2019-02-17T03:08:41.487Z,8.20
2019-02-17T03:13:47.295Z,7.50
2019-02-17T03:18:53.235Z,8.30
2019-02-17T03:23:58.916Z,8.53
2019-02-17T03:29:04.711Z,8.30
2019-02-17T03:34:10.655Z,7.93
2019-02-17T03:39:16.317Z,8.13
2019-02-17T03:44:23.049Z,8.53
2019-02-17T03:49:28.629Z,7.40
2019-02-17T03:54:34.309Z,8.43
2019-02-17T03:59:40.413Z,7.87
2019-02-17T04:04:46.010Z,8.27
2019-02-17T04:09:52.070Z,7.80
2019-02-17T04:14:57.989Z,7.70
2019-02-17T04:20:03.681Z,8.47
2019-02-17T04:25:09.363Z,8.63
2019-02-17T04:30:28.164Z,8.40
2019-02-17T04:35:24.193Z,8.67
2019-02-17T04:40:29.830Z,9.27
2019-02-17T04:45:35.771Z,8.17
2019-02-17T04:50:42.169Z,8.13
2019-02-17T04:55:47.816Z,8.50
2019-02-17T05:00:55.124Z,8.67
2019-02-17T05:06:02.319Z,7.67
2019-02-17T05:11:08.315Z,7.90
2019-02-17T05:16:14.386Z,9.00
2019-02-17T05:21:20.709Z,9.27
2019-02-17T05:26:26.698Z,8.93
2019-02-17T05:31:34.007Z,8.60
2019-02-17T05:36:39.740Z,8.60
2019-02-17T05:41:45.538Z,8.60
2019-02-17T05:46:51.433Z,8.17
2019-02-17T05:51:56.987Z,8.70
2019-02-17T05:57:04.620Z,8.03
2019-02-17T06:02:12.856Z,8.70
2019-02-17T06:07:21.072Z,8.83
2019-02-17T06:12:27.200Z,8.07
2019-02-17T06:17:33.144Z,8.80
2019-02-17T06:22:39.184Z,8.50
2019-02-17T06:27:45.914Z,8.73
2019-02-17T06:32:52.382Z,9.27
2019-02-17T06:37:58.457Z,8.17
2019-02-17T06:43:04.255Z,8.47
2019-02-17T06:48:10.043Z,8.47
2019-02-17T06:53:17.799Z,9.07
2019-02-17T06:58:23.470Z,8.40
2019-02-17T07:03:30.774Z,8.73
2019-02-17T07:08:36.416Z,8.83
2019-02-17T07:13:42.943Z,9.27
2019-02-17T07:18:48.670Z,9.47
2019-02-17T07:23:55.245Z,9.27
2019-02-17T07:29:01.452Z,9.90
2019-02-17T07:34:07.535Z,10.43
2019-02-17T07:39:14.065Z,9.60
2019-02-17T07:44:19.811Z,9.60
2019-02-17T07:49:26.194Z,9.90
2019-02-17T07:54:33.287Z,9.73
2019-02-17T07:59:40.496Z,9.57
2019-02-17T08:04:47.836Z,9.77
2019-02-17T08:09:55.545Z,10.57
2019-02-17T08:15:01.291Z,10.60
2019-02-17T08:20:10.475Z,10.30
2019-02-17T08:25:21.822Z,10.23
2019-02-17T08:30:25.738Z,10.90
2019-02-17T08:35:32.964Z,9.60
2019-02-17T08:40:41.466Z,10.23
2019-02-17T08:45:47.264Z,10.80
2019-02-17T08:50:54.692Z,11.47
2019-02-17T08:56:00.631Z,12.27
2019-02-17T09:01:07.738Z,11.80
2019-02-17T09:06:15.535Z,12.43
2019-02-17T09:11:21.135Z,11.40
2019-02-17T09:16:28.130Z,12.67
2019-02-17T09:21:34.154Z,12.13
2019-02-17T09:26:39.735Z,13.20
2019-02-17T09:31:47.019Z,12.90
2019-02-17T09:36:52.620Z,13.57
2019-02-17T09:41:59.300Z,14.27
2019-02-17T09:47:05.081Z,14.73
2019-02-17T09:52:11.583Z,14.30
2019-02-17T09:57:17.555Z,13.40
2019-02-17T10:02:26.818Z,14.30
2019-02-17T10:07:33.436Z,14.73
2019-02-17T10:12:39.857Z,14.93
2019-02-17T10:17:47.041Z,15.37
2019-02-17T10:22:52.994Z,15.83
2019-02-17T10:27:59.880Z,14.90
2019-02-17T10:33:06.252Z,16.63
2019-02-17T10:38:11.823Z,15.83
2019-02-17T10:43:17.630Z,15.20
2019-02-17T10:48:24.090Z,16.03
2019-02-17T10:53:30.310Z,15.77
2019-02-17T10:58:36.013Z,15.10
2019-02-17T11:03:45.536Z,15.23
2019-02-17T11:08:52.727Z,15.90
2019-02-17T11:14:00.388Z,15.37
2019-02-17T11:19:08.709Z,15.20
2019-02-17T11:24:16.155Z,16.47
2019-02-17T11:29:21.985Z,15.53
2019-02-17T11:34:28.217Z,16.60
2019-02-17T11:39:34.623Z,19.90
2019-02-17T11:44:40.672Z,17.43
2019-02-17T11:49:47.236Z,17.40
2019-02-17T11:54:55.989Z,16.43
2019-02-17T12:00:03.677Z,17.73
2019-02-17T12:05:12.293Z,19.03
2019-02-17T12:10:19.414Z,26.57
2019-02-17T12:15:25.053Z,16.90
2019-02-17T12:20:39.458Z,15.68
2019-02-17T12:26:03.569Z,14.13
2019-02-17T12:31:10.897Z,15.75
2019-02-17T12:36:18.447Z,16.00
2019-02-17T12:41:24.489Z,14.68
2019-02-17T12:46:31.170Z,15.65
2019-02-17T12:51:39.066Z,17.82
2019-02-17T12:56:49.051Z,17.02
2019-02-17T13:01:56.953Z,16.27
2019-02-17T13:07:03.138Z,22.32
2019-02-17T13:12:11.136Z,17.20
2019-02-17T13:17:17.345Z,19.50
2019-02-17T13:22:24.780Z,17.48
2019-02-17T13:27:36.707Z,16.90
2019-02-17T13:32:46.693Z,18.25
2019-02-17T13:37:58.553Z,18.02
2019-02-17T13:43:07.553Z,16.05
2019-02-17T13:48:18.797Z,18.95
2019-02-17T13:53:26.859Z,17.15
2019-02-17T13:58:34.949Z,16.70
2019-02-17T14:03:48.831Z,18.77
2019-02-17T14:08:56.807Z,24.47
2019-02-17T14:14:05.945Z,17.67
2019-02-17T14:19:14.635Z,21.27
2019-02-17T14:24:22.682Z,21.37
2019-02-17T14:29:29.792Z,22.75
2019-02-17T14:34:36.636Z,23.30
2019-02-17T14:39:51.710Z,20.27
2019-02-17T14:45:00.714Z,23.67
2019-02-17T14:50:10.930Z,21.23
2019-02-17T14:55:17.841Z,18.77
2019-02-17T15:00:24.993Z,21.15
2019-02-17T15:05:34.953Z,20.55
2019-02-17T15:10:48.213Z,18.12
2019-02-17T15:15:57.633Z,21.70
2019-02-17T15:21:09.261Z,20.20
2019-02-17T15:26:16.711Z,20.52
2019-02-17T15:31:24.870Z,21.15
2019-02-17T15:36:35.239Z,19.05
2019-02-17T15:41:43.968Z,20.02
2019-02-17T15:46:50.880Z,21.60
2019-02-17T15:51:58.000Z,19.60
2019-02-17T15:57:03.918Z,18.27
2019-02-17T16:02:11.517Z,49.38
2019-02-17T16:07:19.034Z,23.57
2019-02-17T16:12:26.180Z,19.77
2019-02-17T16:17:32.204Z,20.47
2019-02-17T16:22:39.968Z,21.03
2019-02-17T16:27:49.102Z,22.20
2019-02-17T16:32:56.206Z,21.57
2019-02-17T16:38:05.228Z,21.60
2019-02-17T16:43:13.445Z,63.50
2019-02-17T16:48:20.775Z,23.13
2019-02-17T16:53:27.431Z,23.97
2019-02-17T16:58:35.316Z,21.50
2019-02-17T17:03:42.475Z,21.20
2019-02-17T17:08:49.044Z,18.97
2019-02-17T17:13:56.170Z,18.07
2019-02-17T17:19:02.208Z,16.73
2019-02-17T17:24:10.191Z,18.47
2019-02-17T17:29:16.206Z,17.47
2019-02-17T17:34:22.994Z,17.30
2019-02-17T17:39:28.670Z,16.83
2019-02-17T17:44:36.011Z,18.60
2019-02-17T17:49:42.367Z,17.10
2019-02-17T17:54:48.702Z,19.73
2019-02-17T17:59:54.659Z,16.07
2019-02-17T18:05:08.812Z,15.87
2019-02-17T18:10:14.976Z,16.20
2019-02-17T18:15:21.637Z,16.83
2019-02-17T18:20:28.087Z,15.80
2019-02-17T18:25:35.701Z,16.67
2019-02-17T18:30:44.215Z,17.57
2019-02-17T18:35:52.362Z,16.57
2019-02-17T18:40:59.219Z,17.50
2019-02-17T18:46:05.622Z,17.03
2019-02-17T18:51:12.447Z,16.93
2019-02-17T18:56:18.025Z,17.97
2019-02-17T19:01:24.531Z,17.03
2019-02-17T19:06:30.108Z,17.57
2019-02-17T19:11:35.773Z,17.37
2019-02-17T19:16:41.861Z,17.70
2019-02-17T19:21:48.246Z,18.23
2019-02-17T19:26:54.425Z,17.30
2019-02-17T19:32:02.303Z,18.17
2019-02-17T19:37:09.169Z,17.10
2019-02-17T19:42:17.496Z,17.20
2019-02-17T19:47:24.427Z,17.80
2019-02-17T19:52:30.538Z,18.20
2019-02-17T19:57:36.826Z,17.27
2019-02-17T20:02:59.439Z,17.57
2019-02-17T20:08:05.774Z,16.73
2019-02-17T20:13:12.430Z,17.63
2019-02-17T20:18:18.883Z,18.00
2019-02-17T20:23:24.664Z,38.13
2019-02-17T20:28:42.497Z,18.27
2019-02-17T20:33:39.938Z,17.37
2019-02-17T20:38:45.980Z,16.27
2019-02-17T20:43:52.473Z,17.20
2019-02-17T20:48:59.351Z,18.03
2019-02-17T20:54:05.469Z,17.27
2019-02-17T20:59:12.588Z,18.53
2019-02-17T21:04:18.624Z,16.93
2019-02-17T21:09:24.759Z,18.47
2019-02-17T21:14:31.002Z,17.80
2019-02-17T21:19:36.911Z,17.90
2019-02-17T21:24:42.756Z,18.00
2019-02-17T21:29:48.686Z,17.97
2019-02-17T21:34:54.342Z,17.70
2019-02-17T21:40:00.508Z,17.77
2019-02-17T21:45:12.125Z,17.60
2019-02-17T21:50:18.097Z,18.97
2019-02-17T21:55:25.908Z,16.93
2019-02-17T22:00:31.687Z,18.03
2019-02-17T22:05:37.678Z,18.73
2019-02-17T22:10:43.253Z,17.70
2019-02-17T22:15:49.151Z,17.80
2019-02-17T22:20:55.100Z,19.47
2019-02-17T22:26:00.960Z,18.63
2019-02-17T22:31:06.557Z,17.80
2019-02-17T22:36:13.201Z,17.17
2019-02-17T22:41:19.377Z,17.70
2019-02-17T22:46:25.115Z,18.23
2019-02-17T22:51:31.404Z,17.27
2019-02-17T22:56:36.992Z,17.33
2019-02-17T23:01:43.314Z,17.77
2019-02-17T23:06:54.173Z,17.70
2019-02-17T23:11:57.303Z,17.40
2019-02-17T23:17:02.914Z,18.60
2019-02-17T23:22:09.198Z,17.83
2019-02-17T23:27:15.595Z,16.77
2019-02-17T23:32:21.247Z,17.83
2019-02-17T23:37:27.376Z,17.40
2019-02-17T23:42:33.565Z,18.17
2019-02-17T23:47:39.492Z,16.57
2019-02-17T23:52:45.540Z,17.77
2019-02-17T23:57:51.632Z,17.23
